Time;durP1;ratioP1;P1;durP2;ratioP2;P2;SDS_P1;SDS_P2;PMS_P1;PMS_P2;Temp;Humidity;BMP_temperature;BMP_pressure;BME280_temperature;BME280_humidity;BME280_pressure;Samples;Min_cycle;Max_cycle;Signal;HPM_P1;HPM_P2
2021/03/29 00:00:06;;;;;;;4.35;2.80;;;10.20;73.10;;;;;;5096887;28;20690;-68
2021/03/29 00:02:32;;;;;;;2.60;2.40;;;10.20;73.00;;;;;;5096729;28;20206;-68
2021/03/29 00:04:59;;;;;;;4.13;2.40;;;10.20;73.20;;;;;;5096801;28;20312;-68
2021/03/29 00:07:27;;;;;;;3.85;2.67;;;10.20;73.70;;;;;;5096283;28;20254;-68
2021/03/29 00:09:55;;;;;;;3.67;2.63;;;10.20;73.70;;;;;;5096739;28;20206;-68
2021/03/29 00:12:23;;;;;;;2.47;2.13;;;10.10;73.50;;;;;;5096754;28;20241;-68
2021/03/29 00:14:51;;;;;;;5.47;2.60;;;10.10;73.10;;;;;;5096823;28;20301;-68
2021/03/29 00:17:19;;;;;;;5.18;2.40;;;10.10;73.50;;;;;;5096556;28;20209;-68
2021/03/29 00:19:46;;;;;;;4.90;2.58;;;10.10;73.60;;;;;;5096337;28;20206;-68
2021/03/29 00:22:13;;;;;;;4.35;2.22;;;10.10;73.80;;;;;;5096460;28;20293;-68
2021/03/29 00:24:40;;;;;;;4.75;2.50;;;10.10;73.80;;;;;;5096353;28;20229;-68
2021/03/29 00:27:08;;;;;;;2.90;2.30;;;10.20;74.00;;;;;;5096037;28;20209;-68
2021/03/29 00:29:35;;;;;;;4.38;2.25;;;10.20;73.40;;;;;;5095405;28;20309;-68
2021/03/29 00:32:03;;;;;;;5.85;2.40;;;10.20;73.00;;;;;;5096392;28;20289;-68
2021/03/29 00:34:31;;;;;;;3.35;2.15;;;10.20;73.10;;;;;;5096163;28;20218;-68
2021/03/29 00:36:58;;;;;;;2.25;2.05;;;10.20;72.80;;;;;;5096123;28;20202;-68
2021/03/29 00:39:26;;;;;;;5.43;2.45;;;10.30;73.00;;;;;;5096147;28;20202;-68
2021/03/29 00:41:52;;;;;;;4.28;2.70;;;10.10;74.00;;;;;;5096218;28;20635;-68
2021/03/29 00:44:20;;;;;;;3.35;2.13;;;10.20;73.50;;;;;;5095881;28;20237;-68
2021/03/29 00:46:47;;;;;;;3.25;2.03;;;10.20;73.70;;;;;;5095934;28;20210;-68
2021/03/29 00:49:15;;;;;;;3.03;2.60;;;10.10;74.00;;;;;;5095600;28;20251;-68
2021/03/29 00:51:43;;;;;;;3.30;2.25;;;10.10;74.10;;;;;;5096013;28;20224;-68
2021/03/29 00:54:11;;;;;;;3.40;2.60;;;10.00;73.90;;;;;;5095905;28;20216;-68
2021/03/29 00:56:38;;;;;;;5.00;3.05;;;10.00;74.90;;;;;;5095565;28;20208;-68
2021/03/29 00:59:06;;;;;;;3.13;2.20;;;10.00;74.80;;;;;;5095916;28;20545;-68
2021/03/29 01:01:39;;;;;;;2.90;2.15;;;10.00;75.30;;;;;;5095715;28;20293;-68
2021/03/29 01:04:06;;;;;;;3.03;2.40;;;10.00;75.10;;;;;;5095461;28;20208;-68
2021/03/29 01:06:37;;;;;;;4.30;2.42;;;10.00;74.90;;;;;;5095220;28;20683;-68
2021/03/29 01:09:07;;;;;;;3.60;2.60;;;9.90;75.90;;;;;;5095815;28;20226;-68
2021/03/29 01:11:36;;;;;;;3.25;2.45;;;9.90;76.00;;;;;;5095629;28;20571;-68
2021/03/29 01:14:05;;;;;;;3.20;2.60;;;9.90;76.50;;;;;;5095376;28;20671;-68
2021/03/29 01:16:35;;;;;;;3.85;2.50;;;9.90;76.60;;;;;;5095351;28;20288;-68
2021/03/29 01:19:06;;;;;;;5.60;2.50;;;9.80;76.80;;;;;;5095455;28;20289;-68
2021/03/29 01:21:54;;;;;;;3.00;2.70;;;9.70;78.20;;;;;;5095463;28;20212;-68
2021/03/29 01:24:26;;;;;;;4.45;3.00;;;9.70;78.60;;;;;;5095377;28;20222;-68
2021/03/29 01:26:54;;;;;;;4.20;2.80;;;9.70;79.10;;;;;;5095188;28;20263;-68
2021/03/29 01:29:29;;;;;;;2.78;2.58;;;9.80;78.70;;;;;;5094983;28;20697;-68
2021/03/29 01:31:58;;;;;;;5.07;2.75;;;9.70;78.90;;;;;;5095246;28;20202;-68
2021/03/29 01:34:25;;;;;;;5.88;2.75;;;9.60;79.40;;;;;;5094987;28;20261;-68
2021/03/29 01:36:52;;;;;;;3.90;2.50;;;9.60;79.80;;;;;;5094634;28;20206;-68
2021/03/29 01:39:18;;;;;;;3.95;2.42;;;9.50;79.30;;;;;;5095457;28;20204;-68
2021/03/29 01:41:45;;;;;;;3.42;2.58;;;9.50;80.80;;;;;;5094885;28;20293;-68
2021/03/29 01:44:13;;;;;;;3.05;2.70;;;9.40;80.20;;;;;;5094725;28;20214;-68
2021/03/29 01:46:39;;;;;;;4.25;2.70;;;9.40;81.20;;;;;;5094863;28;20225;-68
2021/03/29 01:49:07;;;;;;;3.40;2.58;;;9.30;80.90;;;;;;5094675;28;20684;-68
2021/03/29 01:51:33;;;;;;;3.53;2.80;;;9.20;81.30;;;;;;5094680;28;20378;-68
2021/03/29 01:54:00;;;;;;;3.65;2.75;;;9.30;81.50;;;;;;5094667;28;20214;-68
2021/03/29 01:56:26;;;;;;;4.07;2.80;;;9.20;81.30;;;;;;5094621;28;20202;-68
2021/03/29 01:58:53;;;;;;;4.13;2.75;;;9.20;82.30;;;;;;5094518;28;20202;-68
2021/03/29 02:01:20;;;;;;;4.60;2.70;;;9.10;83.30;;;;;;5094598;28;20297;-68
2021/03/29 02:03:48;;;;;;;4.32;2.45;;;9.00;83.60;;;;;;5094628;28;20290;-68
2021/03/29 02:06:16;;;;;;;3.00;2.42;;;9.10;84.30;;;;;;5094688;28;20226;-68
2021/03/29 02:08:44;;;;;;;4.45;2.88;;;9.10;84.50;;;;;;5094472;28;20218;-68
2021/03/29 02:11:10;;;;;;;4.20;2.75;;;9.10;84.10;;;;;;5094475;28;20292;-68
2021/03/29 02:13:40;;;;;;;5.47;2.90;;;8.90;83.10;;;;;;5094413;28;20206;-68
2021/03/29 02:16:10;;;;;;;3.92;2.80;;;8.90;84.40;;;;;;5093889;28;20756;-68
2021/03/29 02:18:39;;;;;;;2.90;2.35;;;8.80;84.50;;;;;;5094246;28;20285;-68
2021/03/29 02:21:08;;;;;;;7.38;2.97;;;8.80;84.80;;;;;;5094007;28;20288;-68
2021/03/29 02:23:35;;;;;;;4.18;3.08;;;8.90;84.80;;;;;;5093992;28;20204;-68
2021/03/29 02:26:04;;;;;;;3.30;2.40;;;8.90;85.10;;;;;;5094021;28;20312;-68
2021/03/29 02:28:31;;;;;;;3.05;2.50;;;8.90;84.90;;;;;;5094062;28;20228;-68
2021/03/29 02:31:00;;;;;;;3.03;2.67;;;8.90;84.90;;;;;;5094135;28;20198;-68
2021/03/29 02:33:27;;;;;;;3.30;2.65;;;8.90;85.50;;;;;;5093977;28;20202;-68
2021/03/29 02:35:54;;;;;;;2.28;2.10;;;8.90;85.40;;;;;;5093716;28;20728;-68
2021/03/29 02:38:21;;;;;;;3.70;3.00;;;8.90;85.90;;;;;;5094003;28;20208;-68
2021/03/29 02:40:51;;;;;;;3.15;2.78;;;8.90;85.60;;;;;;5094014;28;20302;-68
2021/03/29 02:43:19;;;;;;;3.80;2.47;;;8.90;85.80;;;;;;5094005;28;20228;-68
2021/03/29 02:45:51;;;;;;;3.55;2.58;;;8.80;86.00;;;;;;5093741;28;20230;-68
2021/03/29 02:48:19;;;;;;;5.13;2.30;;;8.70;86.30;;;;;;5093745;28;20225;-68
2021/03/29 02:50:48;;;;;;;2.60;2.40;;;8.70;86.80;;;;;;5093967;28;20285;-68
2021/03/29 02:53:18;;;;;;;2.92;2.30;;;8.60;86.80;;;;;;5093548;28;20289;-68
2021/03/29 02:55:46;;;;;;;3.60;2.30;;;8.60;87.00;;;;;;5093680;28;20313;-68
2021/03/29 02:58:14;;;;;;;4.10;2.70;;;8.70;87.20;;;;;;5093509;28;20234;-68
2021/03/29 03:00:41;;;;;;;4.28;2.35;;;8.60;86.60;;;;;;5093768;28;20288;-68
2021/03/29 03:03:09;;;;;;;4.40;2.78;;;8.50;87.10;;;;;;5093725;28;20198;-68
2021/03/29 03:05:37;;;;;;;4.03;2.67;;;8.50;87.40;;;;;;5093459;28;20699;-68
2021/03/29 03:08:05;;;;;;;5.10;2.97;;;8.40;88.30;;;;;;5093442;28;20221;-68
2021/03/29 03:10:34;;;;;;;3.70;2.35;;;8.40;88.20;;;;;;5093474;28;20202;-68
2021/03/29 03:13:03;;;;;;;2.80;2.60;;;8.40;88.10;;;;;;5093616;28;20578;-68
2021/03/29 03:15:30;;;;;;;2.90;2.65;;;8.50;88.00;;;;;;5093852;28;20253;-68
2021/03/29 03:17:59;;;;;;;3.53;2.50;;;8.60;88.40;;;;;;5093605;28;20204;-68
2021/03/29 03:20:27;;;;;;;3.75;3.08;;;8.60;88.00;;;;;;5094020;28;20633;-68
2021/03/29 03:22:54;;;;;;;3.05;2.65;;;8.60;88.00;;;;;;5093780;28;20205;-68
2021/03/29 03:25:23;;;;;;;4.07;2.40;;;8.60;88.10;;;;;;5093311;28;20700;-68
2021/03/29 03:27:50;;;;;;;5.75;3.33;;;8.60;87.90;;;;;;5093273;28;20202;-68
2021/03/29 03:30:27;;;;;;;3.97;2.72;;;8.60;88.30;;;;;;5093524;28;20202;-68
2021/03/29 03:32:54;;;;;;;2.63;2.15;;;8.60;87.50;;;;;;5093338;28;20656;-68
2021/03/29 03:35:23;;;;;;;2.95;2.55;;;8.50;87.40;;;;;;5093192;28;20308;-68
2021/03/29 03:37:53;;;;;;;4.75;2.80;;;8.40;88.10;;;;;;5093300;28;20604;-68
2021/03/29 03:40:22;;;;;;;3.25;2.33;;;8.50;88.40;;;;;;5093568;28;20599;-68
2021/03/29 03:42:50;;;;;;;4.93;2.55;;;8.40;87.90;;;;;;5093233;28;20198;-68
2021/03/29 03:45:18;;;;;;;3.00;2.25;;;8.40;88.30;;;;;;5093177;28;20230;-68
2021/03/29 03:47:45;;;;;;;3.00;2.20;;;8.30;88.60;;;;;;5093058;28;20206;-68
2021/03/29 03:50:13;;;;;;;4.07;2.53;;;8.30;88.10;;;;;;5093285;28;20293;-68
2021/03/29 03:52:41;;;;;;;3.40;2.25;;;8.30;88.40;;;;;;5093270;28;20206;-68
2021/03/29 03:55:09;;;;;;;3.50;2.83;;;8.30;88.30;;;;;;5093286;28;20222;-68
2021/03/29 03:57:37;;;;;;;4.45;2.90;;;8.20;88.70;;;;;;5093086;28;20206;-68
2021/03/29 04:00:09;;;;;;;3.78;3.08;;;8.20;90.00;;;;;;5093120;28;20210;-68
2021/03/29 04:02:35;;;;;;;3.15;2.70;;;8.20;89.30;;;;;;5093188;28;20202;-68
2021/03/29 04:05:03;;;;;;;3.67;3.30;;;8.30;89.30;;;;;;5094528;28;20593;-68
2021/03/29 04:07:29;;;;;;;3.88;3.15;;;8.20;89.30;;;;;;5096526;28;20224;-68
2021/03/29 04:10:02;;;;;;;5.55;3.30;;;8.20;89.50;;;;;;5096728;28;20312;-68
2021/03/29 04:12:29;;;;;;;10.20;3.28;;;8.20;90.00;;;;;;5096758;28;20206;-68
2021/03/29 04:14:55;;;;;;;3.45;3.13;;;8.20;89.90;;;;;;5096660;28;20221;-68
2021/03/29 04:17:22;;;;;;;3.58;3.17;;;8.20;90.00;;;;;;5096588;28;20243;-68
2021/03/29 04:19:49;;;;;;;5.55;3.35;;;8.10;90.20;;;;;;5096503;28;20252;-68
2021/03/29 04:22:15;;;;;;;5.93;3.53;;;8.10;90.70;;;;;;5096334;28;20763;-68
2021/03/29 04:24:41;;;;;;;5.40;4.03;;;8.10;91.00;;;;;;5096648;28;20222;-68
2021/03/29 04:27:08;;;;;;;6.03;3.80;;;8.00;90.90;;;;;;5096682;28;20559;-68
2021/03/29 04:29:34;;;;;;;5.43;4.00;;;8.00;91.30;;;;;;5096447;28;20254;-68
2021/03/29 04:32:01;;;;;;;4.15;3.25;;;8.00;91.40;;;;;;5096087;28;20297;-68
2021/03/29 04:34:28;;;;;;;4.60;3.15;;;8.00;91.50;;;;;;5096031;28;20222;-68
2021/03/29 04:36:54;;;;;;;6.32;2.90;;;8.00;91.90;;;;;;5096180;28;20238;-68
2021/03/29 04:39:21;;;;;;;7.80;3.30;;;8.10;91.90;;;;;;5096018;28;20204;-68
2021/03/29 04:41:47;;;;;;;4.43;3.45;;;8.10;91.70;;;;;;5096205;28;20230;-68
2021/03/29 04:44:13;;;;;;;4.18;3.15;;;8.10;91.80;;;;;;5095867;28;20290;-68
2021/03/29 04:46:40;;;;;;;5.45;3.70;;;8.30;92.10;;;;;;5096044;28;20198;-68
2021/03/29 04:49:06;;;;;;;4.13;3.42;;;8.30;91.90;;;;;;5095824;28;20271;-68
2021/03/29 04:51:33;;;;;;;6.10;3.70;;;8.30;92.00;;;;;;5096031;28;20289;-68
2021/03/29 04:54:00;;;;;;;5.57;3.25;;;8.40;91.60;;;;;;5095722;28;20208;-68
2021/03/29 04:56:26;;;;;;;6.85;3.67;;;8.30;91.60;;;;;;5095518;28;20213;-68
2021/03/29 04:58:52;;;;;;;4.60;2.90;;;8.30;91.50;;;;;;5095767;28;20289;-68
2021/03/29 05:01:19;;;;;;;3.75;2.90;;;8.30;92.00;;;;;;5095706;28;20752;-68
2021/03/29 05:03:45;;;;;;;6.10;3.78;;;8.30;91.70;;;;;;5095520;28;20213;-68
2021/03/29 05:06:11;;;;;;;3.75;3.30;;;8.30;92.00;;;;;;5095513;28;20228;-68
2021/03/29 05:08:38;;;;;;;4.80;3.30;;;8.30;92.50;;;;;;5095605;28;20308;-68
2021/03/29 05:11:07;;;;;;;6.95;3.35;;;8.40;92.50;;;;;;5095614;28;20206;-68
2021/03/29 05:13:33;;;;;;;5.32;3.17;;;8.40;92.30;;;;;;5095520;28;20293;-68
2021/03/29 05:16:00;;;;;;;3.63;3.17;;;8.40;92.30;;;;;;5095078;28;20222;-68
2021/03/29 05:18:26;;;;;;;4.47;2.55;;;8.50;91.80;;;;;;5095486;28;20285;-68
2021/03/29 05:20:54;;;;;;;6.03;3.10;;;8.60;91.70;;;;;;5095230;28;20294;-68
2021/03/29 05:23:20;;;;;;;5.43;3.30;;;8.60;91.70;;;;;;5095566;28;20260;-68
2021/03/29 05:25:48;;;;;;;3.85;3.00;;;8.70;91.20;;;;;;5095352;28;20313;-68
2021/03/29 05:28:14;;;;;;;5.20;3.15;;;8.70;92.10;;;;;;5094983;28;20290;-68
2021/03/29 05:30:40;;;;;;;4.05;3.00;;;8.70;91.80;;;;;;5095320;28;20621;-68
2021/03/29 05:33:07;;;;;;;6.10;3.40;;;8.80;91.80;;;;;;5095203;28;20201;-68
2021/03/29 05:35:33;;;;;;;4.68;3.22;;;8.80;92.10;;;;;;5095258;28;20272;-68
2021/03/29 05:38:00;;;;;;;4.68;2.95;;;8.90;91.70;;;;;;5094972;28;20210;-68
2021/03/29 05:40:26;;;;;;;4.90;3.05;;;9.00;91.10;;;;;;5095080;28;20293;-68
2021/03/29 05:42:54;;;;;;;5.60;3.92;;;9.10;91.40;;;;;;5094951;28;20656;-68
2021/03/29 05:45:22;;;;;;;4.68;3.65;;;9.00;91.40;;;;;;5094594;28;20265;-68
2021/03/29 05:47:48;;;;;;;4.13;3.17;;;9.00;91.80;;;;;;5094810;28;20201;-68
2021/03/29 05:50:38;;;;;;;7.90;3.20;;;9.00;91.70;;;;;;5094768;28;20728;-68
2021/03/29 05:53:05;;;;;;;5.55;3.90;;;8.90;91.10;;;;;;5095021;28;20288;-68
2021/03/29 05:55:35;;;;;;;4.50;3.28;;;8.50;91.10;;;;;;5094685;28;20342;-68
2021/03/29 05:58:33;;;;;;;5.03;3.92;;;8.40;91.90;;;;;;5094434;28;20198;-68
2021/03/29 06:00:59;;;;;;;4.50;3.25;;;8.20;92.60;;;;;;5094528;28;20198;-68
2021/03/29 06:03:29;;;;;;;4.25;3.30;;;8.00;93.80;;;;;;5094690;28;20575;-68
2021/03/29 06:05:58;;;;;;;5.32;3.75;;;8.10;94.10;;;;;;5094340;28;20216;-68
2021/03/29 06:08:25;;;;;;;4.97;3.60;;;8.40;94.00;;;;;;5094471;28;20755;-68
2021/03/29 06:10:54;;;;;;;3.80;3.40;;;8.60;93.40;;;;;;5094335;28;20296;-68
2021/03/29 06:13:24;;;;;;;7.10;3.38;;;8.80;93.10;;;;;;5094483;28;20610;-68
2021/03/29 06:16:02;;;;;;;5.07;3.42;;;8.90;92.00;;;;;;5094238;28;20726;-68
2021/03/29 06:18:29;;;;;;;4.78;3.70;;;8.90;91.80;;;;;;5094420;28;20182;-68
2021/03/29 06:21:04;;;;;;;4.50;3.55;;;8.80;91.70;;;;;;5094129;28;20202;-68
2021/03/29 06:23:31;;;;;;;4.45;3.33;;;8.60;92.30;;;;;;5094067;28;20735;-68
2021/03/29 06:26:22;;;;;;;6.30;3.90;;;8.50;92.80;;;;;;5094121;28;20226;-68
2021/03/29 06:28:50;;;;;;;4.47;3.60;;;8.40;93.60;;;;;;5093517;28;20235;-68
2021/03/29 06:31:25;;;;;;;7.97;4.13;;;8.50;94.30;;;;;;5094129;28;20202;-68
2021/03/29 06:33:53;;;;;;;6.85;4.43;;;8.80;93.90;;;;;;5094099;28;20205;-68
2021/03/29 06:36:28;;;;;;;5.07;3.70;;;9.00;93.50;;;;;;5093675;28;20759;-68
2021/03/29 06:38:55;;;;;;;6.80;3.90;;;9.40;93.80;;;;;;5094099;28;20198;-68
2021/03/29 06:41:28;;;;;;;5.70;3.72;;;9.50;93.60;;;;;;5094189;28;20258;-68
2021/03/29 06:43:55;;;;;;;9.60;4.45;;;9.70;93.50;;;;;;5094690;28;20577;-69
2021/03/29 06:46:24;;;;;;;5.10;3.85;;;9.90;93.10;;;;;;5093515;28;20221;-69
2021/03/29 06:48:51;;;;;;;7.93;4.07;;;9.90;92.30;;;;;;5094276;28;20244;-69
2021/03/29 06:51:19;;;;;;;7.25;3.95;;;10.10;91.60;;;;;;5094958;28;20621;-69
2021/03/29 06:53:51;;;;;;;5.70;4.15;;;10.20;91.00;;;;;;5094808;28;20233;-69
2021/03/29 06:56:39;;;;;;;5.75;4.38;;;10.30;91.00;;;;;;5094506;28;20363;-69
2021/03/29 06:59:15;;;;;;;5.40;4.00;;;10.40;90.60;;;;;;5094143;28;20735;-69
2021/03/29 07:01:49;;;;;;;4.10;3.67;;;10.60;90.60;;;;;;5094454;28;20214;-69
2021/03/29 07:04:19;;;;;;;5.57;4.38;;;10.80;89.40;;;;;;5094210;28;20206;-69
2021/03/29 07:06:47;;;;;;;5.60;5.00;;;11.00;88.80;;;;;;5093949;28;20288;-69
2021/03/29 07:09:14;;;;;;;6.05;4.43;;;11.20;88.50;;;;;;5093662;28;20221;-68
2021/03/29 07:11:41;;;;;;;6.60;4.60;;;11.40;88.70;;;;;;5093792;28;20233;-69
2021/03/29 07:14:09;;;;;;;8.60;4.80;;;11.40;87.80;;;;;;5093604;28;20216;-68
2021/03/29 07:16:36;;;;;;;4.55;4.07;;;11.30;87.50;;;;;;5093249;28;20296;-68
2021/03/29 07:19:05;;;;;;;9.98;4.35;;;11.40;86.80;;;;;;5093561;28;20782;-68
2021/03/29 07:21:31;;;;;;;7.15;4.95;;;11.40;86.00;;;;;;5093725;28;20296;-69
2021/03/29 07:24:02;;;;;;;8.05;4.57;;;11.50;85.90;;;;;;5094019;28;20626;-69
2021/03/29 07:26:34;;;;;;;7.28;4.30;;;11.60;86.20;;;;;;5093445;28;20624;-68
2021/03/29 07:29:20;;;;;;;5.90;4.43;;;11.50;85.30;;;;;;5093643;28;20309;-68
2021/03/29 07:31:51;;;;;;;6.90;4.55;;;11.70;85.70;;;;;;5093607;28;20210;-68
2021/03/29 07:34:17;;;;;;;6.07;4.20;;;11.90;84.90;;;;;;5093834;28;20579;-69
2021/03/29 07:36:48;;;;;;;4.80;4.30;;;12.00;83.30;;;;;;5093558;28;20296;-69
2021/03/29 07:39:21;;;;;;;8.68;4.90;;;12.20;83.60;;;;;;5095866;28;20212;-69
2021/03/29 07:41:48;;;;;;;7.32;4.20;;;12.20;81.90;;;;;;5097590;28;20193;-68
2021/03/29 07:44:19;;;;;;;7.78;4.60;;;12.20;82.90;;;;;;5097923;28;20216;-68
2021/03/29 07:46:48;;;;;;;4.68;4.15;;;12.10;82.90;;;;;;5097203;28;20237;-69
2021/03/29 07:49:46;;;;;;;6.68;4.40;;;12.20;81.80;;;;;;5097571;28;20226;-68
2021/03/29 07:52:34;;;;;;;8.75;4.82;;;12.20;83.10;;;;;;5098031;28;20245;-69
2021/03/29 07:55:02;;;;;;;8.40;4.38;;;12.50;82.10;;;;;;5098503;28;20233;-69
2021/03/29 07:58:02;;;;;;;6.00;4.53;;;12.50;80.90;;;;;;5097746;28;20606;-69
2021/03/29 08:00:49;;;;;;;7.60;4.95;;;12.70;82.20;;;;;;5098052;28;20202;-69
2021/03/29 08:03:54;;;;;;;6.45;4.95;;;12.90;80.90;;;;;;5087202;28;20292;-69
2021/03/29 08:06:48;;;;;;;7.85;5.32;;;12.90;80.40;;;;;;5096632;28;20312;-69
2021/03/29 08:09:18;;;;;;;7.03;5.20;;;12.70;80.30;;;;;;5096963;28;20655;-68
2021/03/29 08:11:54;;;;;;;5.88;4.70;;;12.80;81.70;;;;;;5096921;28;20209;-69
2021/03/29 08:14:35;;;;;;;7.40;4.90;;;13.00;81.20;;;;;;5096637;28;20222;-69
2021/03/29 08:17:36;;;;;;;6.95;4.82;;;13.30;80.50;;;;;;5096757;28;20277;-69
2021/03/29 08:20:16;;;;;;;5.68;5.00;;;13.40;79.90;;;;;;5096721;28;20200;-69
2021/03/29 08:22:42;;;;;;;7.25;5.28;;;13.60;78.10;;;;;;5096822;28;20294;-69
2021/03/29 08:25:27;;;;;;;8.07;5.07;;;13.80;79.40;;;;;;5096542;28;20222;-69
2021/03/29 08:27:58;;;;;;;8.68;5.30;;;13.90;78.00;;;;;;5096672;28;20209;-69
2021/03/29 08:30:26;;;;;;;8.27;5.10;;;13.90;77.90;;;;;;5096305;28;20218;-69
2021/03/29 08:33:08;;;;;;;5.78;4.70;;;14.00;76.30;;;;;;5096606;28;20293;-69
2021/03/29 08:35:37;;;;;;;12.10;4.90;;;14.10;76.30;;;;;;5096650;28;20226;-69
2021/03/29 08:38:09;;;;;;;8.00;5.50;;;14.10;76.20;;;;;;5096325;28;20206;-69
2021/03/29 08:40:36;;;;;;;6.15;5.18;;;14.20;76.00;;;;;;5096870;28;20206;-69
2021/03/29 08:43:04;;;;;;;8.68;5.00;;;14.10;75.80;;;;;;5096880;28;20206;-69
2021/03/29 08:45:31;;;;;;;6.80;4.75;;;14.10;75.90;;;;;;5096626;28;20230;-69
2021/03/29 08:47:59;;;;;;;6.13;4.93;;;14.10;75.60;;;;;;5096891;28;20210;-68
2021/03/29 08:50:28;;;;;;;5.40;4.85;;;14.30;73.90;;;;;;5095628;28;20767;-69
2021/03/29 08:52:59;;;;;;;5.95;4.80;;;14.10;73.90;;;;;;5096033;28;20294;-69
2021/03/29 08:55:28;;;;;;;7.22;4.60;;;14.20;75.10;;;;;;5096390;28;20222;-68
2021/03/29 08:57:56;;;;;;;5.20;4.43;;;14.20;75.40;;;;;;5095885;28;20202;-69
2021/03/29 09:00:24;;;;;;;7.32;4.95;;;14.60;74.00;;;;;;5095971;28;20682;-69
2021/03/29 09:02:52;;;;;;;4.68;4.18;;;15.20;71.00;;;;;;5095806;28;20211;-69
2021/03/29 09:05:20;;;;;;;9.82;4.80;;;15.60;71.10;;;;;;5095978;28;20225;-69
2021/03/29 09:07:48;;;;;;;5.47;4.28;;;15.90;68.30;;;;;;5095701;28;20252;-69
2021/03/29 09:10:18;;;;;;;5.40;4.07;;;16.20;67.50;;;;;;5095640;28;20278;-69
2021/03/29 09:12:46;;;;;;;7.53;4.70;;;16.30;67.60;;;;;;5095662;28;20300;-69
2021/03/29 09:15:15;;;;;;;6.30;4.10;;;16.20;65.00;;;;;;5095605;28;20701;-69
2021/03/29 09:17:42;;;;;;;6.63;4.90;;;16.30;65.90;;;;;;5095452;28;20292;-69
2021/03/29 09:20:20;;;;;;;4.43;4.03;;;16.40;65.60;;;;;;5095565;28;20201;-69
2021/03/29 09:22:47;;;;;;;5.30;3.90;;;16.30;66.60;;;;;;5095441;28;20204;-69
2021/03/29 09:25:21;;;;;;;5.35;4.07;;;16.40;64.20;;;;;;5095362;28;20284;-69
2021/03/29 09:28:07;;;;;;;5.88;3.58;;;16.20;64.20;;;;;;5095372;28;20246;-69
2021/03/29 09:30:35;;;;;;;4.60;3.42;;;16.50;65.30;;;;;;5095563;28;20540;-69
2021/03/29 09:33:01;;;;;;;4.10;3.40;;;16.90;61.80;;;;;;5095197;28;20209;-69
2021/03/29 09:35:28;;;;;;;3.90;3.35;;;17.20;61.60;;;;;;5095231;28;20225;-69
2021/03/29 09:37:54;;;;;;;3.10;2.58;;;17.30;60.90;;;;;;5095345;28;20194;-68
2021/03/29 09:40:21;;;;;;;4.82;3.33;;;17.30;59.70;;;;;;5095204;28;20202;-68
2021/03/29 09:42:52;;;;;;;3.25;2.95;;;17.50;59.30;;;;;;5095315;28;20259;-68
2021/03/29 09:45:23;;;;;;;3.03;2.75;;;17.80;59.70;;;;;;5095019;28;20264;-68
2021/03/29 09:48:01;;;;;;;3.28;2.97;;;18.10;58.20;;;;;;5095146;28;20208;-68
2021/03/29 09:50:34;;;;;;;5.30;3.08;;;18.60;57.50;;;;;;5094872;28;20290;-69
2021/03/29 09:53:11;;;;;;;3.40;2.80;;;19.50;58.40;;;;;;5094842;28;20208;-69
2021/03/29 09:55:48;;;;;;;3.17;2.87;;;21.10;54.70;;;;;;5094955;28;21053;-69
2021/03/29 09:58:24;;;;;;;4.50;3.50;;;22.90;51.20;;;;;;5094551;28;20447;-69
2021/03/29 10:00:53;;;;;;;2.93;2.67;;;25.00;46.90;;;;;;5094794;28;20432;-69
2021/03/29 10:03:21;;;;;;;3.97;3.13;;;26.80;41.50;;;;;;5093736;28;20802;-69
2021/03/29 10:05:48;;;;;;;4.00;3.00;;;27.60;38.00;;;;;;5094356;28;20470;-69
2021/03/29 10:08:33;;;;;;;3.60;3.03;;;28.00;36.90;;;;;;5094283;28;20444;-69
2021/03/29 10:11:02;;;;;;;3.37;2.60;;;28.60;36.00;;;;;;5094711;28;20858;-69
2021/03/29 10:13:38;;;;;;;2.50;2.40;;;28.30;35.50;;;;;;5094548;28;20582;-69
2021/03/29 10:16:21;;;;;;;3.17;2.87;;;28.10;35.20;;;;;;5094329;28;20542;-69
2021/03/29 10:18:48;;;;;;;3.10;2.80;;;28.30;34.60;;;;;;5094361;28;20471;-69
2021/03/29 10:21:14;;;;;;;4.33;2.33;;;28.30;34.10;;;;;;5094368;28;20450;-69
2021/03/29 10:23:43;;;;;;;3.03;2.70;;;28.80;33.00;;;;;;5094448;28;20450;-69
2021/03/29 10:26:20;;;;;;;2.77;2.50;;;29.50;32.20;;;;;;5094107;28;20996;-69
2021/03/29 10:29:09;;;;;;;2.87;2.60;;;29.90;31.00;;;;;;5094657;28;20479;-69
2021/03/29 10:31:37;;;;;;;2.93;2.63;;;28.40;31.50;;;;;;5091928;28;20448;-69
2021/03/29 10:34:05;;;;;;;2.27;2.10;;;27.90;33.60;;;;;;5095259;28;20441;-69
2021/03/29 10:36:31;;;;;;;2.50;2.30;;;28.80;32.70;;;;;;5094038;28;20472;-69
2021/03/29 10:38:58;;;;;;;2.23;2.03;;;28.90;32.40;;;;;;5094482;28;20483;-69
2021/03/29 10:41:25;;;;;;;2.40;2.20;;;29.80;31.70;;;;;;5094255;28;20450;-69
2021/03/29 10:43:52;;;;;;;3.57;2.40;;;30.50;30.60;;;;;;5093854;28;20442;-70
2021/03/29 10:46:19;;;;;;;2.87;2.67;;;30.80;30.00;;;;;;5094063;28;20554;-70
2021/03/29 10:48:46;;;;;;;3.93;2.40;;;29.90;29.50;;;;;;5093884;28;20444;-69
2021/03/29 10:51:12;;;;;;;2.87;2.30;;;29.60;30.50;;;;;;5093871;28;20526;-69
2021/03/29 10:53:38;;;;;;;2.60;2.40;;;29.40;30.40;;;;;;5094030;28;21061;-69
2021/03/29 10:56:05;;;;;;;2.80;2.30;;;29.30;30.60;;;;;;5093857;28;20476;-69
2021/03/29 10:58:33;;;;;;;2.40;1.67;;;29.00;31.00;;;;;;5093917;28;20474;-69
2021/03/29 11:00:59;;;;;;;4.23;2.20;;;29.40;30.90;;;;;;5093863;28;20531;-70
2021/03/29 11:03:27;;;;;;;4.80;2.27;;;29.40;30.60;;;;;;5093999;28;20534;-70
2021/03/29 11:05:53;;;;;;;2.50;2.30;;;29.40;30.20;;;;;;5093791;28;20510;-69
2021/03/29 11:08:19;;;;;;;3.50;2.20;;;30.20;29.70;;;;;;5093803;28;20525;-70
2021/03/29 11:10:46;;;;;;;2.10;1.90;;;31.20;28.70;;;;;;5093943;28;20440;-70
2021/03/29 11:13:13;;;;;;;2.50;2.10;;;30.80;28.40;;;;;;5094324;28;20528;-70
2021/03/29 11:15:39;;;;;;;2.63;2.43;;;31.20;28.40;;;;;;5098109;28;20456;-70
2021/03/29 11:18:07;;;;;;;13.37;1.97;;;31.20;27.40;;;;;;5097933;28;20450;-70
2021/03/29 11:20:34;;;;;;;2.13;1.90;;;32.00;28.00;;;;;;5097776;28;20483;-70
2021/03/29 11:23:01;;;;;;;2.93;2.00;;;32.80;27.50;;;;;;5097768;28;20448;-70
2021/03/29 11:25:27;;;;;;;3.30;2.60;;;32.90;25.90;;;;;;5097844;28;20821;-70
2021/03/29 11:27:54;;;;;;;2.40;2.20;;;33.40;26.20;;;;;;5097727;28;20530;-70
2021/03/29 11:30:21;;;;;;;3.27;2.60;;;33.70;25.10;;;;;;5097875;28;20443;-70
2021/03/29 11:32:47;;;;;;;2.87;2.07;;;32.30;25.60;;;;;;5097809;28;20530;-70
2021/03/29 11:35:14;;;;;;;2.23;1.90;;;32.20;26.60;;;;;;5097525;28;20546;-70
2021/03/29 11:37:41;;;;;;;3.17;2.03;;;32.60;26.20;;;;;;5097530;28;20594;-70
2021/03/29 11:40:11;;;;;;;2.67;1.93;;;32.60;26.00;;;;;;5097566;28;20571;-70
2021/03/29 11:42:38;;;;;;;4.77;2.33;;;32.70;25.60;;;;;;5097516;28;20447;-70
2021/03/29 11:45:06;;;;;;;2.50;1.83;;;32.50;25.10;;;;;;5097061;28;21011;-70
2021/03/29 11:47:33;;;;;;;2.20;1.90;;;32.50;24.60;;;;;;5097314;28;20498;-70
2021/03/29 11:49:59;;;;;;;2.80;2.10;;;31.50;25.80;;;;;;5097476;28;20540;-70
2021/03/29 11:52:25;;;;;;;2.73;2.00;;;31.30;26.00;;;;;;5097836;28;20493;-70
2021/03/29 11:54:52;;;;;;;2.97;1.93;;;30.10;26.80;;;;;;5097098;28;20550;-70
2021/03/29 11:57:19;;;;;;;3.37;1.90;;;29.30;27.10;;;;;;5097277;28;20455;-69
2021/03/29 11:59:50;;;;;;;4.07;2.00;;;28.60;27.80;;;;;;5096943;28;20509;-70
2021/03/29 12:02:18;;;;;;;2.40;2.10;;;28.00;27.70;;;;;;5097223;28;20522;-69
2021/03/29 12:04:50;;;;;;;1.90;1.80;;;27.40;28.70;;;;;;5096977;28;20472;-69
2021/03/29 12:07:21;;;;;;;2.10;1.90;;;27.10;29.00;;;;;;5096790;28;20466;-69
2021/03/29 12:09:54;;;;;;;1.80;1.70;;;26.20;29.80;;;;;;5096885;28;20453;-69
2021/03/29 12:12:21;;;;;;;2.17;1.90;;;25.80;30.80;;;;;;5097055;28;20442;-69
2021/03/29 12:14:48;;;;;;;2.30;1.83;;;25.10;30.50;;;;;;5096555;28;20545;-69
2021/03/29 12:17:15;;;;;;;2.90;2.00;;;24.50;30.30;;;;;;5096366;28;20528;-69
2021/03/29 12:19:42;;;;;;;3.17;1.73;;;24.10;31.60;;;;;;5096473;28;21037;-69
2021/03/29 12:22:12;;;;;;;1.80;1.70;;;23.90;31.60;;;;;;5096614;28;20477;-69
2021/03/29 12:24:41;;;;;;;4.80;2.10;;;23.50;32.30;;;;;;5096770;28;20550;-69
2021/03/29 12:27:08;;;;;;;1.87;1.73;;;23.40;32.60;;;;;;5097452;28;20444;-69
2021/03/29 12:29:38;;;;;;;2.30;1.80;;;23.40;33.40;;;;;;5096505;28;20527;-69
2021/03/29 12:32:07;;;;;;;3.33;2.17;;;23.40;33.00;;;;;;5096641;28;20448;-69
2021/03/29 12:34:35;;;;;;;2.07;1.50;;;23.00;33.00;;;;;;5096320;28;20872;-69
2021/03/29 12:37:03;;;;;;;1.60;1.50;;;22.90;33.70;;;;;;5096168;28;20441;-69
2021/03/29 12:39:35;;;;;;;2.23;1.90;;;22.90;34.30;;;;;;5096771;28;20468;-69
2021/03/29 12:42:04;;;;;;;2.90;2.13;;;22.70;33.50;;;;;;5096320;28;20447;-69
2021/03/29 12:44:33;;;;;;;2.20;1.90;;;22.30;33.50;;;;;;5096080;28;20486;-69
2021/03/29 12:47:03;;;;;;;3.70;1.80;;;22.40;34.00;;;;;;5095870;28;20451;-69
2021/03/29 12:49:29;;;;;;;2.10;1.70;;;22.50;34.60;;;;;;5096266;28;20446;-69
2021/03/29 12:51:57;;;;;;;2.90;1.83;;;22.70;34.00;;;;;;5096197;28;20432;-69
2021/03/29 12:54:26;;;;;;;1.43;1.33;;;22.80;33.80;;;;;;5095865;28;20506;-69
2021/03/29 12:56:52;;;;;;;1.80;1.60;;;22.90;33.20;;;;;;5096162;28;20456;-69
2021/03/29 12:59:20;;;;;;;2.70;1.90;;;22.90;32.90;;;;;;5095836;28;20910;-69
2021/03/29 13:01:47;;;;;;;2.23;2.13;;;22.90;33.80;;;;;;5095914;28;20945;-69